Terminal Aerodrome Forecast
Issued by NWS

Home | Current Version | Previous Version | Text Only | Print | Product List | Glossary On
Versions: 1 2 3 4 5 6 7 8 9 10 11 12 13 14 15 16 17 18 19 20 21 22 23 24 25 26 27 28 29 30 31 32 33
000
FTUS43 KDLH 020329 AAC
TAFHYR
TAF AMD
KHYR 020329Z 0203/0224 03002KT 1/4SM FG HZ VCSH OVC008
      TEMPO 0203/0205 3/4SM HZ BR SCT008
     FM021400 13006KT P6SM SCT030 BKN080=

USA.gov is the U.S. government's official web portal to all federal, state and local government web resources and services.